Time;durP1;ratioP1;P1;durP2;ratioP2;P2;SDS_P1;SDS_P2;PMS_P1;PMS_P2;Temp;Humidity;BMP_temperature;BMP_pressure;BME280_temperature;BME280_humidity;BME280_pressure;Samples;Min_cycle;Max_cycle;Signal;HPM_P1;HPM_P2
2022/07/08 00:02:08;;;;;;;9.95;1.90;;;;;;;14.78;70.73;102950.50;5070996;28;20118;-73
2022/07/08 00:04:34;;;;;;;8.43;1.70;;;;;;;14.82;70.84;102953.03;5087476;28;20044;-70
2022/07/08 00:06:59;;;;;;;6.22;1.90;;;;;;;14.82;71.75;102958.53;5080649;28;20372;-72
2022/07/08 00:09:28;;;;;;;9.45;1.98;;;;;;;14.81;70.81;102954.91;5068367;28;20403;-73
2022/07/08 00:11:54;;;;;;;9.45;2.17;;;;;;;14.81;71.32;102952.16;5066995;28;20542;-72
2022/07/08 00:14:20;;;;;;;4.78;1.90;;;;;;;14.80;70.27;102956.75;5066926;28;20064;-72
2022/07/08 00:16:46;;;;;;;7.05;1.95;;;;;;;14.81;70.33;102952.16;5067271;28;20048;-73
2022/07/08 00:19:14;;;;;;;7.97;1.80;;;;;;;14.80;70.89;102961.38;5067818;28;20040;-73
2022/07/08 00:21:44;;;;;;;7.75;1.98;;;;;;;14.78;70.54;102955.06;5067978;28;20097;-73
2022/07/08 00:24:13;;;;;;;8.32;1.98;;;;;;;14.73;71.16;102955.31;5067504;28;20093;-72
2022/07/08 00:26:39;;;;;;;5.50;2.30;;;;;;;14.71;70.64;102950.91;5066979;28;20024;-73
2022/07/08 00:29:05;;;;;;;9.98;2.03;;;;;;;14.68;71.33;102951.06;5065612;28;20036;-73
2022/07/08 00:31:31;;;;;;;7.05;1.92;;;;;;;14.63;71.24;102958.66;5067853;28;20154;-72
2022/07/08 00:33:56;;;;;;;8.10;2.03;;;;;;;14.58;71.39;102953.44;5085523;28;20173;-72
2022/07/08 00:36:22;;;;;;;6.22;1.88;;;;;;;14.52;71.12;102946.47;5081840;28;20106;-72
2022/07/08 00:38:47;;;;;;;7.00;1.98;;;;;;;14.47;71.54;102953.13;5067396;28;20048;-73
2022/07/08 00:41:12;;;;;;;4.45;1.70;;;;;;;14.38;71.95;102959.13;5074547;28;20041;-72
2022/07/08 00:43:40;;;;;;;7.53;2.20;;;;;;;14.27;72.65;102963.34;5065520;28;20093;-72
2022/07/08 00:46:07;;;;;;;7.43;2.20;;;;;;;14.20;72.39;102955.53;5066945;28;20526;-73
2022/07/08 00:48:32;;;;;;;4.43;1.67;;;;;;;14.13;72.70;102959.53;5068220;28;20024;-72
2022/07/08 00:51:00;;;;;;;5.45;1.92;;;;;;;14.03;73.72;102960.06;5067255;28;20036;-72
2022/07/08 00:53:27;;;;;;;4.13;1.92;;;;;;;13.93;73.87;102963.34;5066958;28;20039;-72
2022/07/08 00:55:53;;;;;;;6.68;2.10;;;;;;;13.79;74.73;102953.13;5065757;28;20582;-73
2022/07/08 00:58:19;;;;;;;4.78;1.90;;;;;;;13.70;74.52;102962.69;5081938;28;20040;-73
2022/07/08 01:00:45;;;;;;;7.15;2.22;;;;;;;13.63;74.59;102963.13;5064116;28;20424;-73
2022/07/08 01:03:10;;;;;;;13.60;1.92;;;;;;;13.57;74.36;102968.88;5078874;28;20040;-72
2022/07/08 01:05:36;;;;;;;4.32;2.03;;;;;;;13.50;74.88;102960.09;5087039;28;20055;-72
2022/07/08 01:08:01;;;;;;;7.38;1.75;;;;;;;13.44;74.79;102971.38;5083570;28;20039;-72
2022/07/08 01:10:29;;;;;;;6.50;1.80;;;;;;;13.40;74.34;102977.94;5066798;28;20391;-73
2022/07/08 01:12:56;;;;;;;5.40;1.95;;;;;;;13.33;75.18;102971.88;5064695;28;20444;-73
2022/07/08 01:15:22;;;;;;;7.05;1.85;;;;;;;13.26;75.53;102967.69;5064630;28;20467;-72
2022/07/08 01:17:48;;;;;;;4.82;1.90;;;;;;;13.18;75.65;102969.88;5065550;28;20028;-72
2022/07/08 01:20:15;;;;;;;5.32;1.83;;;;;;;13.15;74.86;102970.03;5065964;28;20036;-71
2022/07/08 01:22:40;;;;;;;3.05;1.75;;;;;;;13.12;75.02;102967.47;5065354;28;20028;-72
2022/07/08 01:25:07;;;;;;;9.82;2.33;;;;;;;13.07;75.41;102970.44;5065225;28;20051;-72
2022/07/08 01:27:33;;;;;;;5.07;1.95;;;;;;;12.96;75.73;102960.03;5066628;28;20105;-72
2022/07/08 01:29:59;;;;;;;8.82;2.30;;;;;;;12.88;76.13;102964.97;5074841;28;20056;-71
2022/07/08 01:32:32;;;;;;;8.07;2.33;;;;;;;12.83;75.55;102963.44;5071475;28;20483;-73
2022/07/08 01:34:58;;;;;;;6.40;2.05;;;;;;;12.80;76.61;102961.72;5086643;28;20044;-73
2022/07/08 01:37:23;;;;;;;5.28;2.40;;;;;;;12.78;75.56;102960.91;5086897;28;20418;-72
2022/07/08 01:39:49;;;;;;;10.75;2.58;;;;;;;12.77;75.91;102965.47;5066976;28;20093;-72
2022/07/08 01:42:14;;;;;;;6.40;1.75;;;;;;;12.72;75.94;102966.66;5065750;28;20037;-72
2022/07/08 01:44:39;;;;;;;11.00;2.08;;;;;;;12.68;76.34;102968.66;5063351;28;20024;-73
2022/07/08 01:47:05;;;;;;;5.15;1.58;;;;;;;12.61;76.41;102960.81;5066295;28;20089;-72
2022/07/08 01:49:30;;;;;;;5.05;2.10;;;;;;;12.57;76.30;102961.91;5067002;28;20067;-72
2022/07/08 01:51:56;;;;;;;6.90;1.98;;;;;;;12.53;76.64;102958.44;5065834;28;20554;-72
2022/07/08 01:54:21;;;;;;;7.47;2.50;;;;;;;12.52;76.97;102949.38;5066200;28;20034;-72
2022/07/08 01:56:46;;;;;;;4.50;1.92;;;;;;;12.49;77.16;102956.81;5068126;28;20040;-70
2022/07/08 01:59:12;;;;;;;4.90;2.15;;;;;;;12.45;77.34;102944.25;5068285;28;20114;-72
2022/07/08 02:01:37;;;;;;;7.63;2.25;;;;;;;12.37;77.76;102947.34;5070210;28;20460;-72
2022/07/08 02:04:02;;;;;;;8.52;2.80;;;;;;;12.36;77.45;102955.63;5089842;28;20126;-72
2022/07/08 02:06:28;;;;;;;6.40;2.15;;;;;;;12.34;77.29;102952.94;5090448;28;20536;-71
2022/07/08 02:08:54;;;;;;;6.72;2.08;;;;;;;12.33;77.84;102959.38;5077601;28;20051;-71
2022/07/08 02:14:03;;;;;;;4.40;2.08;;;;;;;12.35;77.57;102957.44;5083544;28;20044;-68
2022/07/08 02:16:28;;;;;;;9.27;2.83;;;;;;;12.38;78.90;102967.34;5070526;28;20388;-72
2022/07/08 02:18:54;;;;;;;9.27;2.38;;;;;;;12.36;77.92;102959.25;5085466;28;20102;-72
2022/07/08 02:21:19;;;;;;;7.90;2.33;;;;;;;12.38;78.40;102948.25;5070398;28;20068;-73
2022/07/08 02:23:44;;;;;;;8.65;2.50;;;;;;;12.38;77.84;102962.78;5069596;28;20540;-72
2022/07/08 02:26:10;;;;;;;6.20;2.10;;;;;;;12.38;78.26;102961.88;5069225;28;20436;-72
2022/07/08 02:28:36;;;;;;;5.57;2.47;;;;;;;12.38;78.47;102967.34;5069419;28;20016;-72
2022/07/08 02:31:01;;;;;;;12.63;3.13;;;;;;;12.35;78.99;102965.63;5068277;28;20028;-72
2022/07/08 02:33:27;;;;;;;10.00;2.42;;;;;;;12.41;78.69;102965.38;5083998;28;20146;-72
2022/07/08 02:35:52;;;;;;;6.75;2.05;;;;;;;12.45;78.36;102961.53;5084598;28;20556;-72
2022/07/08 02:38:20;;;;;;;8.15;2.70;;;;;;;12.47;78.76;102959.63;5070019;28;20086;-73
2022/07/08 02:40:45;;;;;;;4.72;2.17;;;;;;;12.49;79.33;102967.72;5068747;28;20040;-72
2022/07/08 02:43:11;;;;;;;5.28;1.90;;;;;;;12.49;79.33;102965.00;5069295;28;20040;-72
2022/07/08 02:45:37;;;;;;;7.95;2.25;;;;;;;12.49;79.23;102968.59;5068034;28;20060;-72
2022/07/08 02:48:05;;;;;;;7.82;2.53;;;;;;;12.50;79.11;102970.41;5070450;28;20036;-73
2022/07/08 02:50:30;;;;;;;5.18;2.47;;;;;;;12.51;78.79;102966.72;5069433;28;20025;-72
2022/07/08 02:52:55;;;;;;;5.53;2.47;;;;;;;12.51;79.24;102957.63;5068307;28;20110;-72
2022/07/08 02:55:21;;;;;;;4.28;2.42;;;;;;;12.54;79.01;102962.94;5070223;28;20037;-72
2022/07/08 02:57:46;;;;;;;6.63;2.40;;;;;;;12.54;78.88;102962.06;5067507;28;20409;-72
2022/07/08 03:00:12;;;;;;;5.95;2.15;;;;;;;12.51;78.74;102955.78;5068354;28;20106;-73
2022/07/08 03:02:37;;;;;;;5.35;2.15;;;;;;;12.51;79.20;102961.25;5075869;28;20436;-73
2022/07/08 03:05:03;;;;;;;5.35;2.22;;;;;;;12.49;79.18;102968.59;5088811;28;20118;-72
2022/07/08 03:07:28;;;;;;;6.93;2.13;;;;;;;12.44;79.02;102965.22;5079277;28;20060;-72
2022/07/08 03:09:54;;;;;;;6.95;2.25;;;;;;;12.42;79.43;102975.31;5069632;28;20052;-73
2022/07/08 03:12:19;;;;;;;7.13;3.38;;;;;;;12.43;78.54;102974.38;5088795;28;20486;-72
2022/07/08 03:14:44;;;;;;;5.72;2.30;;;;;;;12.44;78.61;102967.06;5074918;28;20101;-72
2022/07/08 03:17:10;;;;;;;6.75;2.15;;;;;;;12.46;79.03;102974.22;5067309;28;20556;-73
2022/07/08 03:19:36;;;;;;;6.05;2.55;;;;;;;12.45;78.90;102969.75;5068996;28;20024;-72
2022/07/08 03:22:03;;;;;;;8.63;2.50;;;;;;;12.42;79.58;102966.25;5068577;28;20154;-72
2022/07/08 03:24:28;;;;;;;6.32;2.67;;;;;;;12.39;78.71;102967.28;5068272;28;20079;-73
2022/07/08 03:26:54;;;;;;;4.18;2.72;;;;;;;12.37;79.10;102971.94;5067344;28;20141;-71
2022/07/08 03:29:19;;;;;;;8.82;2.13;;;;;;;12.35;79.12;102978.41;5068082;28;20051;-72
2022/07/08 03:31:44;;;;;;;7.22;2.13;;;;;;;12.33;78.76;102972.13;5074615;28;20031;-73
2022/07/08 03:34:10;;;;;;;10.07;2.47;;;;;;;12.32;79.37;102978.56;5088659;28;20036;-73
2022/07/08 03:36:35;;;;;;;6.30;2.28;;;;;;;12.32;78.62;102973.09;5089348;28;20505;-73
2022/07/08 03:39:01;;;;;;;6.10;1.85;;;;;;;12.30;78.89;102984.06;5089723;28;20475;-73
2022/07/08 03:41:26;;;;;;;9.93;2.72;;;;;;;12.28;78.55;102980.53;5068802;28;20036;-72
2022/07/08 03:43:52;;;;;;;6.78;2.60;;;;;;;12.26;78.87;102985.16;5067558;28;20044;-72
2022/07/08 03:46:19;;;;;;;6.25;2.58;;;;;;;12.24;78.69;102978.91;5067973;28;20513;-72
2022/07/08 03:48:45;;;;;;;9.73;2.95;;;;;;;12.20;79.19;102980.88;5067375;28;20044;-73
2022/07/08 03:51:10;;;;;;;9.05;2.40;;;;;;;12.22;79.25;102972.63;5066585;28;20036;-73
2022/07/08 03:53:35;;;;;;;8.40;2.45;;;;;;;12.20;78.68;102980.88;5066916;28;20121;-73
2022/07/08 03:56:02;;;;;;;9.50;2.65;;;;;;;12.20;78.58;102980.00;5068074;28;20090;-73
2022/07/08 03:58:27;;;;;;;5.45;2.20;;;;;;;12.16;79.17;102973.78;5067854;28;20541;-72
2022/07/08 04:00:53;;;;;;;4.82;2.30;;;;;;;12.16;78.46;102973.78;5067455;28;20181;-73
2022/07/08 04:03:18;;;;;;;11.10;2.97;;;;;;;12.18;78.35;102981.91;5081229;28;20479;-72
2022/07/08 04:05:43;;;;;;;7.05;2.50;;;;;;;12.19;78.98;102978.22;5088036;28;20075;-72
2022/07/08 04:08:09;;;;;;;6.50;2.40;;;;;;;12.19;78.66;102975.50;5088454;28;20046;-72
2022/07/08 04:10:34;;;;;;;5.07;2.05;;;;;;;12.20;78.61;102985.44;5080637;28;20027;-71
2022/07/08 04:13:00;;;;;;;6.90;2.83;;;;;;;12.19;77.81;102979.09;5067849;28;20070;-71
2022/07/08 04:15:25;;;;;;;5.88;2.25;;;;;;;12.15;78.39;102988.38;5065207;28;20036;-73
2022/07/08 04:17:52;;;;;;;6.50;2.28;;;;;;;12.12;79.17;102980.31;5083236;28;20488;-72
2022/07/08 04:20:18;;;;;;;5.93;2.38;;;;;;;12.11;78.47;102981.28;5067564;28;20423;-72
2022/07/08 04:22:43;;;;;;;4.82;2.30;;;;;;;12.10;78.61;102982.25;5068051;28;20033;-73
2022/07/08 04:25:08;;;;;;;8.05;2.75;;;;;;;12.11;78.59;102981.28;5066706;28;20085;-72
2022/07/08 04:27:34;;;;;;;9.57;2.53;;;;;;;12.10;78.74;102982.25;5067387;28;20036;-72
2022/07/08 04:30:00;;;;;;;4.78;2.30;;;;;;;12.08;79.02;102992.34;5076172;28;20046;-73
2022/07/08 04:32:25;;;;;;;8.38;2.55;;;;;;;12.09;79.04;102985.06;5075831;28;20115;-72
2022/07/08 04:34:51;;;;;;;6.82;2.47;;;;;;;12.06;79.08;102982.44;5087953;28;20028;-72
2022/07/08 04:37:17;;;;;;;4.43;2.72;;;;;;;12.06;80.15;102988.78;5081771;28;20123;-72
2022/07/08 04:39:43;;;;;;;6.80;2.20;;;;;;;12.10;79.34;102990.44;5067397;28;20531;-73
2022/07/08 04:42:08;;;;;;;6.95;2.30;;;;;;;12.16;79.12;102998.34;5065950;28;20051;-72
2022/07/08 04:44:33;;;;;;;5.45;2.40;;;;;;;12.20;79.22;102994.50;5066536;28;20421;-69
2022/07/08 04:46:59;;;;;;;11.18;2.55;;;;;;;12.24;79.16;103000.72;5067983;28;20040;-72
2022/07/08 04:49:24;;;;;;;4.80;2.33;;;;;;;12.26;79.86;103007.00;5067599;28;20376;-72
2022/07/08 04:51:50;;;;;;;8.68;3.22;;;;;;;12.29;79.93;103005.97;5065928;28;20036;-72
2022/07/08 04:54:16;;;;;;;10.65;3.28;;;;;;;12.30;80.07;103007.75;5067301;28;20518;-72
2022/07/08 04:56:41;;;;;;;9.80;3.55;;;;;;;12.34;79.14;103013.00;5068106;28;20506;-73
2022/07/08 04:59:08;;;;;;;7.78;2.97;;;;;;;12.38;78.91;103013.75;5081233;28;20425;-73
2022/07/08 05:01:33;;;;;;;10.43;3.17;;;;;;;12.41;78.87;103019.09;5066924;28;20359;-68
2022/07/08 05:03:59;;;;;;;13.73;3.17;;;;;;;12.46;78.62;103020.66;5084750;28;20036;-72
2022/07/08 05:06:24;;;;;;;5.88;2.80;;;;;;;12.49;78.88;103020.47;5086166;28;20498;-72
2022/07/08 05:08:49;;;;;;;7.40;2.95;;;;;;;12.52;78.87;103016.75;5085666;28;20402;-72
2022/07/08 05:11:15;;;;;;;8.80;2.85;;;;;;;12.58;78.82;103021.91;5064438;28;20169;-72
2022/07/08 05:13:40;;;;;;;13.85;2.85;;;;;;;12.63;78.80;103028.03;5065923;28;20032;-72
2022/07/08 05:16:06;;;;;;;4.72;2.67;;;;;;;12.65;79.11;103023.41;5065792;28;20043;-72
2022/07/08 05:18:31;;;;;;;9.50;3.13;;;;;;;12.68;78.84;103028.75;5067709;28;20033;-72
2022/07/08 05:20:57;;;;;;;8.07;3.70;;;;;;;12.72;79.88;103033.09;5066694;28;20050;-72
2022/07/08 05:23:22;;;;;;;9.30;3.63;;;;;;;12.76;78.79;103036.56;5066036;28;20107;-72
2022/07/08 05:25:47;;;;;;;6.32;3.72;;;;;;;12.83;78.87;103038.06;5065599;28;20480;-72
2022/07/08 05:28:13;;;;;;;7.47;3.95;;;;;;;12.87;78.62;103028.78;5065957;28;20425;-72
2022/07/08 05:30:38;;;;;;;7.80;3.75;;;;;;;12.93;79.25;103047.59;5065131;28;20121;-73
2022/07/08 05:33:03;;;;;;;11.38;4.10;;;;;;;12.93;80.42;103042.13;5076298;28;20043;-70
2022/07/08 05:35:29;;;;;;;5.50;3.67;;;;;;;12.95;80.38;103051.13;5076295;28;20051;-70
2022/07/08 05:37:54;;;;;;;10.77;4.25;;;;;;;13.02;78.19;103049.00;5082273;28;20425;-73
2022/07/08 05:40:19;;;;;;;9.77;3.58;;;;;;;13.09;80.08;103055.06;5065151;28;20399;-71
2022/07/08 05:42:45;;;;;;;7.88;3.47;;;;;;;13.13;78.63;103049.38;5065745;28;20043;-72
2022/07/08 05:45:11;;;;;;;7.85;3.63;;;;;;;13.20;78.04;103049.97;5065803;28;20044;-73
2022/07/08 05:47:37;;;;;;;7.13;3.42;;;;;;;13.23;78.79;103050.72;5066029;28;20032;-72
2022/07/08 05:50:03;;;;;;;13.27;3.53;;;;;;;13.28;78.92;103056.84;5065572;28;20036;-72
2022/07/08 05:52:28;;;;;;;8.73;3.75;;;;;;;13.31;79.02;103057.69;5082290;28;20093;-72
2022/07/08 05:54:53;;;;;;;13.23;3.60;;;;;;;13.36;79.03;103063.81;5065415;28;20475;-71
2022/07/08 05:57:19;;;;;;;9.10;3.38;;;;;;;13.41;78.13;103064.47;5065101;28;20120;-72
2022/07/08 05:59:45;;;;;;;9.55;3.47;;;;;;;13.46;78.52;103066.03;5064339;28;20134;-72
2022/07/08 06:02:10;;;;;;;6.40;3.65;;;;;;;13.47;78.68;103055.97;5069463;28;20027;-74
2022/07/08 06:04:36;;;;;;;11.80;3.70;;;;;;;13.53;78.99;103062.03;5086419;28;20052;-72
2022/07/08 06:07:02;;;;;;;9.35;3.47;;;;;;;13.58;78.71;103067.28;5072571;28;20444;-73
2022/07/08 06:09:27;;;;;;;16.15;3.75;;;;;;;13.64;79.74;103074.28;5066499;28;20098;-72
2022/07/08 06:11:53;;;;;;;6.35;2.45;;;;;;;13.69;78.78;103070.34;5064619;28;20021;-72
2022/07/08 06:14:18;;;;;;;13.52;2.70;;;;;;;13.75;78.46;103070.03;5065152;28;20159;-73
2022/07/08 06:16:47;;;;;;;9.73;2.47;;;;;;;13.78;77.11;103069.00;5065946;28;20043;-73
2022/07/08 06:19:13;;;;;;;8.65;2.33;;;;;;;13.83;77.17;103066.91;5066495;28;20349;-71
2022/07/08 06:21:38;;;;;;;8.25;2.40;;;;;;;13.90;77.95;103070.25;5071562;28;20093;-73
2022/07/08 06:24:04;;;;;;;8.38;2.15;;;;;;;13.93;77.47;103073.69;5066223;28;20348;-68
2022/07/08 06:26:29;;;;;;;8.35;2.03;;;;;;;13.97;78.33;103077.16;5063794;28;20336;-73
2022/07/08 06:28:55;;;;;;;8.48;2.03;;;;;;;14.03;78.08;103074.09;5064672;28;20036;-69
2022/07/08 06:31:20;;;;;;;14.73;2.33;;;;;;;14.06;77.45;103075.81;5065875;28;20040;-72
2022/07/08 06:33:45;;;;;;;8.60;1.80;;;;;;;14.12;77.14;103070.00;5098741;28;20019;-72
2022/07/08 06:36:11;;;;;;;11.80;2.20;;;;;;;14.16;77.14;103074.38;5106797;28;20478;-73
2022/07/08 06:38:36;;;;;;;13.38;2.13;;;;;;;14.20;76.84;103065.91;5072501;28;20428;-73
2022/07/08 06:41:02;;;;;;;6.82;2.30;;;;;;;14.26;76.55;103072.91;5065802;28;20040;-73
2022/07/08 06:43:27;;;;;;;7.07;1.80;;;;;;;14.33;75.40;103065.28;5067901;28;20040;-69
2022/07/08 06:45:52;;;;;;;12.25;2.03;;;;;;;14.36;76.06;103071.50;5068824;28;20318;-73
2022/07/08 06:48:18;;;;;;;7.35;2.35;;;;;;;14.43;76.28;103081.13;5068827;28;20031;-73
2022/07/08 06:50:43;;;;;;;10.23;2.25;;;;;;;14.48;75.07;103069.97;5069126;28;20087;-72
2022/07/08 06:53:09;;;;;;;8.77;1.70;;;;;;;14.56;75.17;103075.94;5069693;28;20020;-71
2022/07/08 06:55:34;;;;;;;10.32;2.33;;;;;;;14.58;76.19;103073.97;5072092;28;20119;-73
2022/07/08 06:57:59;;;;;;;8.40;2.38;;;;;;;14.64;75.03;103076.41;5069868;28;20475;-72
2022/07/08 07:00:25;;;;;;;10.65;2.60;;;;;;;14.71;75.82;103079.69;5068543;28;20539;-70
2022/07/08 07:02:51;;;;;;;6.90;1.92;;;;;;;14.71;74.79;103074.22;5074333;28;20036;-72
2022/07/08 07:05:18;;;;;;;9.75;1.98;;;;;;;14.74;75.15;103077.69;5069319;28;20041;-72
2022/07/08 07:07:44;;;;;;;3.08;1.65;;;;;;;14.83;74.83;103078.13;5069557;28;20631;-73
2022/07/08 07:10:09;;;;;;;13.45;2.00;;;;;;;14.89;75.13;103073.22;5073178;28;20128;-72
2022/07/08 07:12:35;;;;;;;10.23;2.03;;;;;;;14.97;74.55;103078.28;5068210;28;20020;-73
2022/07/08 07:15:00;;;;;;;7.75;1.98;;;;;;;15.02;72.92;103081.66;5068693;28;20040;-73
2022/07/08 07:17:26;;;;;;;5.70;2.25;;;;;;;15.08;74.34;103080.41;5068407;28;20384;-69
2022/07/08 07:19:51;;;;;;;11.10;1.83;;;;;;;15.14;74.22;103078.22;5069394;28;20043;-72
2022/07/08 07:22:16;;;;;;;7.32;1.92;;;;;;;15.18;74.92;103070.69;5069321;28;20491;-73
2022/07/08 07:24:42;;;;;;;7.50;1.90;;;;;;;15.25;74.36;103070.28;5069126;28;20467;-72
2022/07/08 07:27:08;;;;;;;9.32;1.75;;;;;;;15.35;72.23;103073.38;5067372;28;20040;-72
2022/07/08 07:29:34;;;;;;;7.13;1.73;;;;;;;15.44;72.10;103077.47;5071085;28;20035;-70
2022/07/08 07:31:59;;;;;;;9.63;2.20;;;;;;;15.52;71.70;103081.50;5077978;28;20127;-72
2022/07/08 07:34:25;;;;;;;7.50;2.13;;;;;;;15.59;71.61;103078.44;5088764;28;20043;-70
2022/07/08 07:36:50;;;;;;;6.00;1.73;;;;;;;15.68;71.78;103078.81;5077584;28;20041;-72
2022/07/08 07:39:16;;;;;;;7.20;1.50;;;;;;;15.85;72.39;103079.66;5068974;28;20044;-73
2022/07/08 07:41:41;;;;;;;11.57;2.20;;;;;;;16.07;72.21;103075.56;5065785;28;20020;-72
2022/07/08 07:44:07;;;;;;;8.80;1.98;;;;;;;16.30;69.15;103081.53;5066029;28;20036;-73
2022/07/08 07:46:33;;;;;;;6.28;2.42;;;;;;;16.50;69.09;103078.41;5068780;28;20476;-73
2022/07/08 07:48:59;;;;;;;6.40;1.50;;;;;;;16.73;68.04;103077.03;5068909;28;20051;-73
2022/07/08 07:51:25;;;;;;;7.72;1.77;;;;;;;16.77;66.76;103072.22;5068693;28;20036;-72
2022/07/08 07:53:51;;;;;;;9.48;1.88;;;;;;;16.78;67.55;103072.13;5048547;28;20033;-73
2022/07/08 07:56:16;;;;;;;7.70;1.95;;;;;;;16.96;69.71;103077.44;5066862;28;20041;-72
2022/07/08 07:58:42;;;;;;;6.30;1.50;;;;;;;17.18;68.91;103080.59;5066235;28;20468;-72
2022/07/08 08:01:07;;;;;;;7.75;1.77;;;;;;;17.30;69.65;103074.28;5067803;28;20047;-72
2022/07/08 08:03:33;;;;;;;7.88;1.88;;;;;;;17.21;67.09;103077.63;5068058;28;20035;-73
2022/07/08 08:06:00;;;;;;;6.57;2.33;;;;;;;17.28;67.64;103076.25;5067962;28;20245;-72
2022/07/08 08:08:25;;;;;;;8.07;1.80;;;;;;;17.45;67.93;103075.16;5067880;28;20043;-72
2022/07/08 08:10:52;;;;;;;7.32;1.85;;;;;;;17.75;65.14;103080.50;5065568;28;20445;-72
2022/07/08 08:13:18;;;;;;;12.02;1.83;;;;;;;17.94;66.95;103080.13;5067391;28;20044;-73
2022/07/08 08:15:44;;;;;;;6.97;1.95;;;;;;;18.19;65.37;103083.97;5066991;28;20037;-73
2022/07/08 08:18:10;;;;;;;4.63;1.42;;;;;;;18.70;64.37;103079.47;5083845;28;20049;-72
2022/07/08 08:20:36;;;;;;;7.63;1.77;;;;;;;19.01;58.47;103075.38;5067538;28;20039;-70
2022/07/08 08:23:01;;;;;;;5.55;1.52;;;;;;;19.68;60.11;103077.81;5067314;28;20463;-70
2022/07/08 08:25:27;;;;;;;6.63;1.55;;;;;;;20.46;60.83;103074.50;5066216;28;20028;-71
2022/07/08 08:27:53;;;;;;;6.53;1.60;;;;;;;20.96;57.85;103080.69;5067306;28;20040;-72
2022/07/08 08:30:18;;;;;;;6.20;1.35;;;;;;;21.22;53.09;103084.09;5066829;28;20035;-72
2022/07/08 08:32:43;;;;;;;6.57;1.45;;;;;;;21.36;55.40;103086.63;5073906;28;20756;-71
2022/07/08 08:35:09;;;;;;;8.60;1.80;;;;;;;21.78;55.12;103084.06;5087867;28;20020;-72
2022/07/08 08:37:35;;;;;;;7.20;1.80;;;;;;;22.31;53.65;103084.13;5080472;28;20029;-72
2022/07/08 08:40:06;;;;;;;5.18;1.50;;;;;;;22.74;52.25;103077.56;5067765;28;20059;-73
2022/07/08 08:42:32;;;;;;;7.68;1.80;;;;;;;22.97;49.73;103077.44;5067563;28;20040;-73
2022/07/08 08:44:58;;;;;;;9.57;1.92;;;;;;;23.23;49.89;103083.44;5066534;28;20031;-71
2022/07/08 08:47:31;;;;;;;7.25;1.83;;;;;;;23.60;49.66;103073.47;5065822;28;20044;-72
2022/07/08 08:49:57;;;;;;;6.88;1.75;;;;;;;23.65;46.19;103073.06;5067366;28;20040;-71
2022/07/08 08:52:24;;;;;;;9.20;1.80;;;;;;;24.10;48.01;103066.97;5067481;28;20128;-71
2022/07/08 08:54:51;;;;;;;6.63;1.40;;;;;;;24.26;46.17;103069.19;5066576;28;20040;-71
2022/07/08 08:57:18;;;;;;;7.32;1.90;;;;;;;24.23;47.36;103067.56;5065726;28;20106;-73
2022/07/08 08:59:46;;;;;;;6.65;1.70;;;;;;;24.48;49.39;103068.91;5066192;28;20377;-71
2022/07/08 09:02:12;;;;;;;4.47;1.55;;;;;;;24.91;48.25;103065.59;5070189;28;20597;-71
2022/07/08 09:04:37;;;;;;;9.38;1.83;;;;;;;25.06;45.37;103052.03;5087129;28;20036;-71
2022/07/08 09:07:04;;;;;;;7.15;2.15;;;;;;;25.30;45.47;103057.09;5087737;28;20056;-71
2022/07/08 09:09:29;;;;;;;10.43;1.95;;;;;;;25.36;44.56;103062.03;5086591;28;20036;-72
2022/07/08 09:11:55;;;;;;;5.57;1.63;;;;;;;25.29;44.98;103058.13;5065034;28;20522;-72
2022/07/08 09:14:22;;;;;;;8.75;2.10;;;;;;;25.39;43.94;103056.16;5066000;28;20032;-71
2022/07/08 09:17:07;;;;;;;8.15;1.77;;;;;;;25.71;46.66;103052.03;5066679;28;20482;-71
2022/07/08 09:19:33;;;;;;;11.00;1.45;;;;;;;25.99;41.07;103055.66;5067383;28;20360;-72
2022/07/08 09:21:58;;;;;;;6.43;1.70;;;;;;;25.38;39.47;103051.63;5067845;28;20020;-71
2022/07/08 09:24:23;;;;;;;9.88;1.75;;;;;;;25.30;44.97;103059.88;5066591;28;20040;-72
2022/07/08 09:26:54;;;;;;;6.80;1.55;;;;;;;25.06;45.82;103060.41;5064041;28;20036;-72
2022/07/08 09:29:20;;;;;;;8.88;1.70;;;;;;;25.26;45.93;103064.00;5066986;28;20031;-71
2022/07/08 09:31:45;;;;;;;7.25;1.58;;;;;;;25.65;43.83;103056.31;5075916;28;20093;-70
2022/07/08 09:34:12;;;;;;;6.25;1.67;;;;;;;25.87;44.69;103060.59;5086471;28;20140;-71
2022/07/08 09:36:45;;;;;;;7.90;1.80;;;;;;;26.26;45.09;103056.63;5087225;28;20040;-72
2022/07/08 09:39:23;;;;;;;5.53;1.50;;;;;;;26.16;45.10;103065.97;5076441;28;20067;-71
2022/07/08 09:56:30;;;;;;;8.30;2.10;;;;;;;26.40;41.21;103053.25;5072758;28;20138;-71
2022/07/08 09:58:56;;;;;;;11.25;1.67;;;;;;;26.17;41.62;103056.53;5065603;28;20542;-71
2022/07/08 10:01:21;;;;;;;8.02;1.80;;;;;;;26.20;41.05;103059.00;5065387;28;20021;-71
2022/07/08 10:03:46;;;;;;;5.28;1.27;;;;;;;26.07;42.63;103055.75;5083039;28;20040;-72
2022/07/08 10:06:12;;;;;;;6.00;1.60;;;;;;;26.18;42.01;103049.91;5086541;28;20067;-71
2022/07/08 10:08:37;;;;;;;8.32;1.70;;;;;;;25.96;41.25;103058.75;5079861;28;20032;-72
2022/07/08 10:11:07;;;;;;;7.07;1.42;;;;;;;25.35;43.01;103059.41;5065773;28;20051;-72
2022/07/08 10:13:32;;;;;;;7.80;2.50;;;;;;;25.22;42.34;103059.75;5066035;28;20391;-72
2022/07/08 10:16:00;;;;;;;9.52;2.08;;;;;;;25.68;47.98;103057.91;5064781;28;20032;-72
2022/07/08 10:18:36;;;;;;;5.93;1.50;;;;;;;25.94;43.39;103058.94;5069667;28;20040;-69
2022/07/08 10:21:04;;;;;;;4.28;1.85;;;;;;;26.27;44.72;103063.94;5078137;28;20051;-71
2022/07/08 10:23:37;;;;;;;7.63;1.85;;;;;;;26.30;42.83;103060.81;5070747;28;20032;-72
2022/07/08 10:26:06;;;;;;;6.47;1.75;;;;;;;25.94;41.44;103060.84;5068741;28;20549;-72
2022/07/08 10:28:35;;;;;;;4.75;1.38;;;;;;;25.37;42.16;103062.94;5070118;28;20123;-71
2022/07/08 10:31:00;;;;;;;8.27;1.95;;;;;;;24.82;41.99;103060.91;5069522;28;20498;-71
2022/07/08 10:33:28;;;;;;;6.65;1.67;;;;;;;24.71;42.04;103052.72;5083850;28;20032;-71
2022/07/08 10:36:09;;;;;;;8.43;1.65;;;;;;;25.11;45.96;103054.41;5081625;28;20411;-71
2022/07/08 10:38:38;;;;;;;7.95;2.13;;;;;;;25.52;43.74;103055.81;5069913;28;20086;-71
2022/07/08 10:41:06;;;;;;;9.00;1.58;;;;;;;26.20;42.58;103046.94;5069208;28;20044;-68
2022/07/08 10:43:32;;;;;;;7.78;2.08;;;;;;;26.93;42.65;103049.47;5069520;28;20154;-70
2022/07/08 10:46:01;;;;;;;7.13;1.58;;;;;;;27.48;44.97;103043.47;5069089;28;20472;-71
2022/07/08 10:48:48;;;;;;;5.47;2.03;;;;;;;27.75;43.49;103047.09;5069938;28;20051;-71
2022/07/08 10:51:19;;;;;;;9.15;2.30;;;;;;;27.85;41.43;103040.28;5069267;28;20048;-70
2022/07/08 10:53:51;;;;;;;4.32;1.35;;;;;;;28.31;43.05;103046.28;5069046;28;20491;-71
2022/07/08 10:56:44;;;;;;;4.93;1.58;;;;;;;28.81;42.52;103049.91;5067888;28;20037;-71
2022/07/08 10:59:20;;;;;;;6.00;1.73;;;;;;;29.05;42.04;103049.91;5068402;28;20127;-71
2022/07/08 11:02:05;;;;;;;6.53;1.42;;;;;;;29.05;39.55;103049.91;5076983;28;20479;-71
2022/07/08 11:04:31;;;;;;;6.90;1.50;;;;;;;28.89;35.51;103042.38;5070084;28;20063;-72
2022/07/08 11:07:32;;;;;;;7.47;1.95;;;;;;;28.88;40.01;103049.03;5069343;28;20131;-71
2022/07/08 11:10:13;;;;;;;5.95;1.85;;;;;;;29.14;38.89;103057.22;5069166;28;20040;-71
2022/07/08 11:12:45;;;;;;;6.00;1.60;;;;;;;28.26;36.58;103045.94;5068403;28;20044;-71
2022/07/08 11:15:18;;;;;;;5.90;1.70;;;;;;;28.25;38.73;103032.97;5076523;28;20113;-71
2022/07/08 11:17:46;;;;;;;5.25;1.58;;;;;;;27.88;36.79;103039.06;5070329;28;20041;-70
2022/07/08 11:20:20;;;;;;;3.83;1.50;;;;;;;27.96;41.54;103039.94;5083701;28;20039;-71
2022/07/08 11:22:46;;;;;;;5.15;1.80;;;;;;;28.36;39.45;103029.88;5068880;28;20364;-71
2022/07/08 11:25:14;;;;;;;6.07;1.65;;;;;;;28.65;40.70;103040.50;5067818;28;20070;-69
2022/07/08 11:27:41;;;;;;;4.95;1.45;;;;;;;28.67;39.89;103044.00;5067977;28;20090;-72
2022/07/08 11:30:12;;;;;;;4.63;1.42;;;;;;;28.24;38.68;103039.63;5066527;28;20036;-71
2022/07/08 11:32:38;;;;;;;6.27;1.70;;;;;;;27.84;38.61;103048.84;5075299;28;20088;-71
2022/07/08 11:35:04;;;;;;;4.43;1.85;;;;;;;27.73;38.48;103044.44;5089077;28;20016;-68
2022/07/08 11:37:33;;;;;;;8.00;1.90;;;;;;;27.18;39.74;103033.72;5089650;28;20047;-72
2022/07/08 11:39:59;;;;;;;5.43;1.88;;;;;;;27.23;39.77;103039.69;5086138;28;20032;-71